createdAt,value
2023-04-07T00:01:50.675Z,100246.25
2023-04-07T00:04:18.661Z,100254.81
2023-04-07T00:06:46.591Z,100244.91
2023-04-07T00:09:14.395Z,100241.84
2023-04-07T00:11:42.210Z,100250.44
2023-04-07T00:14:09.982Z,100247.66
2023-04-07T00:16:37.644Z,100254.94
2023-04-07T00:19:05.364Z,100249.13
2023-04-07T00:21:33.030Z,100248.41
2023-04-07T00:24:00.710Z,100241.81
2023-04-07T00:26:31.659Z,100241.13
2023-04-07T00:28:59.873Z,100246.50
2023-04-07T00:31:27.777Z,100244.97
2023-04-07T00:33:57.913Z,100251.94
2023-04-07T00:36:27.293Z,100247.31
2023-04-07T00:38:55.026Z,100260.84
2023-04-07T00:41:22.789Z,100245.44
2023-04-07T00:43:52.112Z,100249.25
2023-04-07T00:46:22.672Z,100246.31
2023-04-07T00:48:50.726Z,100243.22
2023-04-07T00:51:23.443Z,100255.38
2023-04-07T00:53:51.350Z,100254.53
2023-04-07T00:56:19.120Z,100243.75
2023-04-07T00:58:47.016Z,100248.84
2023-04-07T01:01:41.310Z,100252.16
2023-04-07T01:04:19.602Z,100246.31
2023-04-07T01:06:51.172Z,100246.31
2023-04-07T01:09:41.819Z,100248.78
2023-04-07T01:12:21.269Z,100242.25
2023-04-07T01:14:57.962Z,100252.84
2023-04-07T01:17:41.987Z,100256.22
2023-04-07T01:20:13.328Z,100254.84
2023-04-07T01:22:53.502Z,100252.56
2023-04-07T01:25:30.635Z,100261.91
2023-04-07T01:28:02.173Z,100259.91
2023-04-07T01:30:36.379Z,100259.22
2023-04-07T01:33:04.930Z,100257.34
2023-04-07T01:35:34.691Z,100261.56
2023-04-07T01:38:03.577Z,100259.13
2023-04-07T01:40:33.689Z,100244.41
2023-04-07T01:43:02.269Z,100255.69
2023-04-07T01:45:30.988Z,100251.84
2023-04-07T01:47:59.483Z,100245.31
2023-04-07T01:50:27.824Z,100252.28
2023-04-07T01:52:56.313Z,100252.16
2023-04-07T01:55:24.488Z,100245.59
2023-04-07T01:58:06.530Z,100253.06
2023-04-07T02:00:36.419Z,100237.63
2023-04-07T02:03:21.203Z,100257.63
2023-04-07T02:05:52.994Z,100255.38
2023-04-07T02:08:24.845Z,100246.38
2023-04-07T02:10:53.172Z,100246.22
2023-04-07T02:13:21.381Z,100262.16
2023-04-07T02:15:51.659Z,100260.81
2023-04-07T02:18:20.489Z,100256.31
2023-04-07T02:20:48.784Z,100254.06
2023-04-07T02:23:16.879Z,100259.28
2023-04-07T02:25:44.651Z,100261.91
2023-04-07T02:28:12.474Z,100268.81
2023-04-07T02:30:40.296Z,100260.88
2023-04-07T02:33:08.114Z,100264.69
2023-04-07T02:35:36.104Z,100260.19
2023-04-07T02:38:03.899Z,100258.13
2023-04-07T02:40:31.713Z,100266.75
2023-04-07T02:42:59.531Z,100264.00
2023-04-07T02:45:27.334Z,100266.75
2023-04-07T02:47:55.198Z,100260.53
2023-04-07T02:50:26.185Z,100264.00
2023-04-07T02:52:56.915Z,100270.91
2023-04-07T02:55:24.698Z,100271.78
2023-04-07T02:57:52.696Z,100270.56
2023-04-07T03:00:40.793Z,100275.38
2023-04-07T03:03:16.252Z,100270.84
2023-04-07T03:05:55.167Z,100283.44
2023-04-07T03:08:22.963Z,100268.03
2023-04-07T03:10:50.929Z,100267.34
2023-04-07T03:13:24.426Z,100259.50
2023-04-07T03:15:52.260Z,100262.44
2023-04-07T03:18:21.070Z,100271.81
2023-04-07T03:20:49.396Z,100265.22
2023-04-07T03:23:18.535Z,100263.09
2023-04-07T03:25:47.558Z,100263.09
2023-04-07T03:28:17.608Z,100257.97
2023-04-07T03:30:46.010Z,100266.91
2023-04-07T03:33:14.213Z,100268.13
2023-04-07T03:35:42.968Z,100267.16
2023-04-07T03:38:12.254Z,100266.06
2023-04-07T03:40:40.859Z,100277.69
2023-04-07T03:43:12.653Z,100269.75
2023-04-07T03:45:41.514Z,100273.06
2023-04-07T03:48:12.282Z,100271.50
2023-04-07T03:50:49.444Z,100262.97
2023-04-07T03:53:19.859Z,100263.03
2023-04-07T03:55:48.125Z,100267.31
2023-04-07T03:58:25.518Z,100271.16
2023-04-07T04:00:53.308Z,100267.13
2023-04-07T04:03:21.213Z,100256.94
2023-04-07T04:06:04.278Z,100277.47
2023-04-07T04:08:33.620Z,100265.22
2023-04-07T04:11:01.927Z,100265.81
2023-04-07T04:13:36.356Z,100264.16
2023-04-07T04:16:06.266Z,100272.28
2023-04-07T04:18:35.087Z,100279.66
2023-04-07T04:21:02.869Z,100268.34
2023-04-07T04:23:31.539Z,100267.25
2023-04-07T04:26:06.104Z,100277.06
2023-04-07T04:28:34.532Z,100263.41
2023-04-07T04:31:04.192Z,100263.75
2023-04-07T04:33:37.029Z,100277.13
2023-04-07T04:36:04.857Z,100274.69
2023-04-07T04:38:33.352Z,100274.91
2023-04-07T04:41:08.569Z,100271.25
2023-04-07T04:43:36.626Z,100278.94
2023-04-07T04:46:08.180Z,100272.56
2023-04-07T04:48:41.554Z,100280.84
2023-04-07T04:51:09.499Z,100284.59
2023-04-07T04:53:39.240Z,100291.44
2023-04-07T04:56:08.348Z,100293.03
2023-04-07T04:58:42.337Z,100302.38
2023-04-07T05:01:12.661Z,100301.88
2023-04-07T05:03:46.114Z,100304.00
2023-04-07T05:06:19.508Z,100297.44
2023-04-07T05:08:49.480Z,100300.28
2023-04-07T05:11:21.664Z,100304.47
2023-04-07T05:13:53.195Z,100293.78
2023-04-07T05:16:21.561Z,100308.22
2023-04-07T05:18:50.157Z,100297.63
2023-04-07T05:21:20.498Z,100304.44
2023-04-07T05:23:48.580Z,100301.25
2023-04-07T05:26:16.900Z,100301.81
2023-04-07T05:28:44.880Z,100295.06
2023-04-07T05:31:18.581Z,100314.38
2023-04-07T05:33:49.148Z,100322.13
2023-04-07T05:36:17.326Z,100304.69
2023-04-07T05:38:45.772Z,100307.84
2023-04-07T05:41:17.625Z,100306.41
2023-04-07T05:43:45.449Z,100317.34
2023-04-07T05:46:14.003Z,100306.66
2023-04-07T05:48:49.759Z,100316.72
2023-04-07T05:51:18.376Z,100314.50
2023-04-07T05:53:46.618Z,100316.84
2023-04-07T05:56:14.415Z,100316.19
2023-04-07T05:58:49.022Z,100321.50
2023-04-07T06:01:17.879Z,100315.72
2023-04-07T06:03:45.855Z,100315.78
2023-04-07T06:06:22.425Z,100314.44
2023-04-07T06:08:50.939Z,100310.38
2023-04-07T06:11:18.753Z,100307.47
2023-04-07T06:13:46.944Z,100314.06
2023-04-07T06:16:15.501Z,100317.78
2023-04-07T06:18:44.020Z,100318.59
2023-04-07T06:21:11.787Z,100311.66
2023-04-07T06:23:39.638Z,100316.16
2023-04-07T06:26:12.200Z,100315.22
2023-04-07T06:28:40.472Z,100317.59
2023-04-07T06:31:08.932Z,100322.84
2023-04-07T06:33:37.897Z,100331.75
2023-04-07T06:36:05.913Z,100334.91
2023-04-07T06:38:33.765Z,100326.47
2023-04-07T06:41:01.469Z,100326.75
2023-04-07T06:43:29.962Z,100332.78
2023-04-07T06:46:02.870Z,100327.75
2023-04-07T06:48:30.879Z,100332.03
2023-04-07T06:50:58.589Z,100338.09
2023-04-07T06:53:26.560Z,100331.16
2023-04-07T06:56:07.297Z,100327.56
2023-04-07T06:58:35.853Z,100331.16
2023-04-07T07:01:06.307Z,100327.97
2023-04-07T07:03:34.425Z,100334.97
2023-04-07T07:06:02.509Z,100332.28
2023-04-07T07:08:31.009Z,100342.09
2023-04-07T07:10:59.060Z,100331.28
2023-04-07T07:13:27.484Z,100339.16
2023-04-07T07:15:55.524Z,100334.59
2023-04-07T07:18:23.302Z,100334.09
2023-04-07T07:20:51.266Z,100336.06
2023-04-07T07:23:19.131Z,100332.00
2023-04-07T07:25:46.886Z,100343.38
2023-04-07T07:28:14.700Z,100340.00
2023-04-07T07:30:42.491Z,100333.63
2023-04-07T07:33:10.374Z,100329.44
2023-04-07T07:35:38.250Z,100332.63
2023-04-07T07:38:06.203Z,100343.78
2023-04-07T07:40:34.134Z,100346.03
2023-04-07T07:43:01.900Z,100334.66
2023-04-07T07:45:29.656Z,100339.16
2023-04-07T07:47:57.619Z,100341.59
2023-04-07T07:50:25.408Z,100339.19
2023-04-07T07:52:53.122Z,100339.84
2023-04-07T07:55:21.084Z,100341.56
2023-04-07T07:57:48.809Z,100345.16
2023-04-07T08:00:16.578Z,100344.00
2023-04-07T08:02:44.395Z,100343.06
2023-04-07T08:05:12.926Z,100340.78
2023-04-07T08:07:40.894Z,100335.47
2023-04-07T08:10:09.057Z,100335.06
2023-04-07T08:12:36.973Z,100339.00
2023-04-07T08:15:05.106Z,100348.53
2023-04-07T08:17:32.870Z,100345.66
2023-04-07T08:20:01.371Z,100329.81
2023-04-07T08:22:29.048Z,100337.34
2023-04-07T08:24:56.764Z,100325.09
2023-04-07T08:27:24.491Z,100329.25
2023-04-07T08:30:03.078Z,100326.63
2023-04-07T08:32:39.294Z,100328.63
2023-04-07T08:35:07.202Z,100330.81
2023-04-07T08:37:36.149Z,100320.69
2023-04-07T08:40:04.785Z,100313.97
2023-04-07T08:42:34.773Z,100328.09
2023-04-07T08:45:07.146Z,100332.09
2023-04-07T08:47:36.134Z,100311.94
2023-04-07T08:50:07.266Z,100320.38
2023-04-07T08:52:40.277Z,100306.41
2023-04-07T08:55:08.846Z,100313.50
2023-04-07T08:57:37.181Z,100314.38
2023-04-07T09:00:06.036Z,100314.03
2023-04-07T09:02:37.361Z,100312.91
2023-04-07T09:05:07.261Z,100320.81
2023-04-07T09:07:37.066Z,100319.78
2023-04-07T09:10:05.471Z,100310.19
2023-04-07T09:12:33.819Z,100308.09
2023-04-07T09:15:01.549Z,100314.81
2023-04-07T09:17:30.156Z,100312.81
2023-04-07T09:19:59.246Z,100323.94
2023-04-07T09:22:40.634Z,100307.69
2023-04-07T09:25:19.299Z,100305.91
2023-04-07T09:28:03.862Z,100308.75
2023-04-07T09:30:33.547Z,100324.66
2023-04-07T09:33:02.003Z,100316.47
2023-04-07T09:35:30.048Z,100311.34
2023-04-07T09:38:08.580Z,100312.63
2023-04-07T09:40:37.565Z,100319.47
2023-04-07T09:43:06.484Z,100317.44
2023-04-07T09:45:37.049Z,100309.81
2023-04-07T09:48:09.291Z,100313.53
2023-04-07T09:50:41.638Z,100323.38
2023-04-07T09:53:09.511Z,100310.19
2023-04-07T09:55:38.546Z,100324.28
2023-04-07T09:58:06.649Z,100294.66
2023-04-07T10:00:35.794Z,100317.06
2023-04-07T10:03:04.368Z,100313.78
2023-04-07T10:05:33.520Z,100313.59
2023-04-07T10:08:02.778Z,100325.31
2023-04-07T10:10:31.894Z,100328.22
2023-04-07T10:12:59.666Z,100316.56
2023-04-07T10:15:31.184Z,100320.44
2023-04-07T10:17:59.856Z,100312.66
2023-04-07T10:20:28.779Z,100310.69
2023-04-07T10:23:06.833Z,100317.13
2023-04-07T10:25:37.271Z,100301.38
2023-04-07T10:28:07.348Z,100304.75
2023-04-07T10:30:35.555Z,100311.28
2023-04-07T10:33:03.803Z,100307.03
2023-04-07T10:36:10.693Z,100310.41
2023-04-07T10:38:38.467Z,100296.31
2023-04-07T10:41:36.513Z,100311.69
2023-04-07T10:44:08.494Z,100308.03
2023-04-07T10:46:45.441Z,100326.47
2023-04-07T10:49:15.145Z,100318.25
2023-04-07T10:51:44.389Z,100309.63
2023-04-07T10:54:23.293Z,100311.91
2023-04-07T10:57:18.300Z,100315.19
2023-04-07T11:00:10.717Z,100308.47
2023-04-07T11:02:40.285Z,100308.84
2023-04-07T11:05:08.978Z,100306.56
2023-04-07T11:07:50.182Z,100306.97
2023-04-07T11:10:19.454Z,100306.97
2023-04-07T11:12:59.719Z,100309.44
2023-04-07T11:15:27.546Z,100300.03
2023-04-07T11:18:17.209Z,100312.44
2023-04-07T11:20:47.018Z,100313.38
2023-04-07T11:23:16.552Z,100305.53
2023-04-07T11:25:46.175Z,100293.09
2023-04-07T11:28:14.665Z,100306.44
2023-04-07T11:30:54.126Z,100293.72
2023-04-07T11:33:27.453Z,100295.91
2023-04-07T11:35:59.077Z,100319.94
2023-04-07T11:38:35.472Z,100307.66
2023-04-07T11:41:14.579Z,100304.16
2023-04-07T11:43:42.823Z,100305.47
2023-04-07T11:46:19.954Z,100298.59
2023-04-07T11:48:48.078Z,100286.13
2023-04-07T11:51:24.053Z,100292.75
2023-04-07T11:53:57.022Z,100300.72
2023-04-07T11:56:24.724Z,100303.22
2023-04-07T11:58:54.476Z,100290.91
2023-04-07T12:01:24.727Z,100281.78
2023-04-07T12:04:01.954Z,100290.38
2023-04-07T12:06:42.084Z,100297.72
2023-04-07T12:09:27.473Z,100290.03
2023-04-07T12:11:55.756Z,100281.22
2023-04-07T12:14:27.753Z,100281.00
2023-04-07T12:16:56.628Z,100300.72
2023-04-07T12:19:27.817Z,100293.31
2023-04-07T12:21:56.559Z,100301.22
2023-04-07T12:24:24.343Z,100297.97
2023-04-07T12:26:52.173Z,100291.25
2023-04-07T12:29:20.436Z,100287.03
2023-04-07T12:31:51.343Z,100300.94
2023-04-07T12:34:19.576Z,100296.41
2023-04-07T12:36:47.645Z,100296.50
2023-04-07T12:39:16.304Z,100290.16
2023-04-07T12:41:46.072Z,100297.16
2023-04-07T12:44:13.997Z,100301.28
2023-04-07T12:46:43.250Z,100282.88
2023-04-07T12:49:11.278Z,100289.72
2023-04-07T12:51:40.284Z,100296.69
2023-04-07T12:54:08.252Z,100293.19
2023-04-07T12:56:36.419Z,100290.31
2023-04-07T12:59:05.271Z,100286.06
2023-04-07T13:01:34.328Z,100297.09
2023-04-07T13:04:02.286Z,100285.44
2023-04-07T13:06:30.855Z,100291.06
2023-04-07T13:08:58.654Z,100298.88
2023-04-07T13:11:26.545Z,100292.41
2023-04-07T13:13:56.221Z,100285.44
2023-04-07T13:16:25.190Z,100293.88
2023-04-07T13:18:53.309Z,100294.81
2023-04-07T13:23:53.775Z,100297.00
2023-04-07T13:26:22.466Z,100285.34
2023-04-07T13:28:50.290Z,100296.13
2023-04-07T13:31:18.312Z,100274.81
2023-04-07T13:33:46.203Z,100290.75
2023-04-07T13:36:13.963Z,100292.72
2023-04-07T13:38:47.518Z,100292.22
2023-04-07T13:41:15.495Z,100299.31
2023-04-07T13:43:43.238Z,100293.94
2023-04-07T13:46:27.308Z,100295.66
2023-04-07T13:48:57.054Z,100297.38
2023-04-07T13:51:24.966Z,100289.34
2023-04-07T13:53:52.767Z,100291.53
2023-04-07T13:56:22.368Z,100294.13
2023-04-07T13:58:50.647Z,100318.31
2023-04-07T14:01:18.501Z,100286.59
2023-04-07T14:03:47.169Z,100293.38
2023-04-07T14:06:15.521Z,100295.34
2023-04-07T14:08:43.222Z,100290.09
2023-04-07T14:11:11.247Z,100291.59
2023-04-07T14:13:39.010Z,100287.28
2023-04-07T14:16:06.899Z,100286.91
2023-04-07T14:18:34.700Z,100299.06
2023-04-07T14:21:03.434Z,100299.75
2023-04-07T14:23:37.368Z,100297.47
2023-04-07T14:26:05.651Z,100297.09
2023-04-07T14:28:33.752Z,100298.38
2023-04-07T14:31:02.164Z,100307.28
2023-04-07T14:33:30.061Z,100298.44
2023-04-07T14:35:57.777Z,100304.94
2023-04-07T14:38:26.139Z,100292.25
2023-04-07T14:40:53.963Z,100301.13
2023-04-07T14:43:21.789Z,100292.53
2023-04-07T14:45:49.532Z,100298.13
2023-04-07T14:48:17.586Z,100292.09
2023-04-07T14:50:46.131Z,100289.53
2023-04-07T14:53:32.961Z,100294.28
2023-04-07T14:56:05.095Z,100291.94
2023-04-07T14:58:32.866Z,100286.16
2023-04-07T15:01:00.655Z,100297.59
2023-04-07T15:03:28.676Z,100294.59
2023-04-07T15:05:56.811Z,100290.09
2023-04-07T15:08:24.570Z,100298.31
2023-04-07T15:10:52.272Z,100297.91
2023-04-07T15:13:19.963Z,100282.22
2023-04-07T15:15:47.762Z,100294.53
2023-04-07T15:18:15.708Z,100297.13
2023-04-07T15:20:43.538Z,100307.06
2023-04-07T15:23:11.564Z,100298.28
2023-04-07T15:25:39.336Z,100307.78
2023-04-07T15:28:07.137Z,100306.50
2023-04-07T15:30:37.247Z,100309.31
2023-04-07T15:33:05.182Z,100297.50
2023-04-07T15:35:35.395Z,100306.09
2023-04-07T15:38:03.142Z,100298.81
2023-04-07T15:40:38.304Z,100311.28
2023-04-07T15:43:07.025Z,100305.91
2023-04-07T15:45:34.932Z,100310.25
2023-04-07T15:48:02.704Z,100317.84
2023-04-07T15:50:31.802Z,100324.50
2023-04-07T15:52:59.605Z,100323.44
2023-04-07T15:55:27.295Z,100317.38
2023-04-07T15:57:55.040Z,100326.25
2023-04-07T16:00:29.977Z,100331.00
2023-04-07T16:02:58.591Z,100327.78
2023-04-07T16:05:26.443Z,100333.38
2023-04-07T16:07:56.720Z,100338.16
2023-04-07T16:10:24.853Z,100344.59
2023-04-07T16:12:52.581Z,100338.59
2023-04-07T16:15:28.950Z,100349.78
2023-04-07T16:18:09.107Z,100348.28
2023-04-07T16:20:37.050Z,100347.63
2023-04-07T16:23:07.761Z,100346.56
2023-04-07T16:25:35.663Z,100347.00
2023-04-07T16:28:03.628Z,100366.41
2023-04-07T16:30:33.257Z,100362.09
2023-04-07T16:33:01.749Z,100362.97
2023-04-07T16:35:31.991Z,100364.69
2023-04-07T16:38:04.739Z,100361.47
2023-04-07T16:40:35.286Z,100366.84
2023-04-07T16:43:03.182Z,100363.41
2023-04-07T16:45:31.036Z,100356.72
2023-04-07T16:47:58.868Z,100372.88
2023-04-07T16:50:52.269Z,100377.41
2023-04-07T16:53:21.306Z,100374.59
2023-04-07T16:55:49.383Z,100373.28
2023-04-07T16:58:21.589Z,100370.06
2023-04-07T17:00:49.268Z,100383.22
2023-04-07T17:03:17.189Z,100383.19
2023-04-07T17:05:45.795Z,100392.44
2023-04-07T17:08:13.545Z,100385.78
2023-04-07T17:10:41.287Z,100396.75
2023-04-07T17:13:09.061Z,100389.88
2023-04-07T17:15:38.212Z,100393.28
2023-04-07T17:18:06.353Z,100404.25
2023-04-07T17:20:34.085Z,100398.66
2023-04-07T17:23:01.831Z,100404.69
2023-04-07T17:25:29.600Z,100406.41
2023-04-07T17:27:57.484Z,100397.81
2023-04-07T17:30:25.188Z,100406.59
2023-04-07T17:32:53.781Z,100407.03
2023-04-07T17:35:21.811Z,100408.28
2023-04-07T17:37:50.207Z,100414.31
2023-04-07T17:40:18.250Z,100410.00
2023-04-07T17:42:46.356Z,100419.66
2023-04-07T17:45:14.220Z,100414.28
2023-04-07T17:47:41.964Z,100424.41
2023-04-07T17:50:10.857Z,100428.88
2023-04-07T17:52:41.562Z,100422.84
2023-04-07T17:55:10.064Z,100430.59
2023-04-07T17:57:38.645Z,100426.50
2023-04-07T18:00:07.058Z,100429.25
2023-04-07T18:02:41.213Z,100426.03
2023-04-07T18:05:09.924Z,100435.06
2023-04-07T18:07:37.976Z,100441.50
2023-04-07T18:10:06.435Z,100438.28
2023-04-07T18:12:36.675Z,100432.00
2023-04-07T18:15:04.758Z,100447.50
2023-04-07T18:17:32.667Z,100433.69
2023-04-07T18:20:00.816Z,100431.72
2023-04-07T18:22:28.706Z,100435.75
2023-04-07T18:24:56.604Z,100451.22
2023-04-07T18:27:25.444Z,100454.88
2023-04-07T18:29:53.197Z,100443.00
2023-04-07T18:32:21.202Z,100461.72
2023-04-07T18:34:49.061Z,100440.38
2023-04-07T18:37:17.170Z,100454.78
2023-04-07T18:39:44.997Z,100456.47
2023-04-07T18:42:12.825Z,100454.34
2023-04-07T18:44:40.661Z,100459.31
2023-04-07T18:47:08.619Z,100448.28
2023-04-07T18:49:39.814Z,100454.31
2023-04-07T18:52:07.627Z,100452.59
2023-04-07T18:54:35.473Z,100451.94
2023-04-07T18:57:04.070Z,100456.03
2023-04-07T18:59:31.823Z,100455.31
2023-04-07T19:01:59.704Z,100464.75
2023-04-07T19:04:27.585Z,100450.06
2023-04-07T19:06:57.577Z,100457.84
2023-04-07T19:09:26.146Z,100456.34
2023-04-07T19:11:53.922Z,100464.03
2023-04-07T19:14:21.639Z,100454.94
2023-04-07T19:16:49.507Z,100466.50
2023-04-07T19:19:17.476Z,100463.88
2023-04-07T19:21:45.315Z,100470.53
2023-04-07T19:24:13.103Z,100460.84
2023-04-07T19:26:41.094Z,100459.72
2023-04-07T19:29:10.791Z,100466.09
2023-04-07T19:31:39.174Z,100467.38
2023-04-07T19:34:07.062Z,100459.81
2023-04-07T19:36:34.839Z,100464.03
2023-04-07T19:39:04.711Z,100461.66
2023-04-07T19:41:33.221Z,100465.03
2023-04-07T19:44:01.300Z,100461.16
2023-04-07T19:46:29.224Z,100455.50
2023-04-07T19:48:57.260Z,100462.31
2023-04-07T19:51:25.045Z,100469.81
2023-04-07T19:53:52.740Z,100459.84
2023-04-07T19:56:20.624Z,100463.72
2023-04-07T19:58:48.824Z,100469.50
2023-04-07T20:01:18.010Z,100479.97
2023-04-07T20:03:46.904Z,100472.38
2023-04-07T20:06:15.359Z,100481.81
2023-04-07T20:08:43.746Z,100479.41
2023-04-07T20:11:13.215Z,100474.91
2023-04-07T20:13:41.626Z,100486.44
2023-04-07T20:16:10.125Z,100477.81
2023-04-07T20:18:38.021Z,100480.31
2023-04-07T20:21:09.992Z,100473.59
2023-04-07T20:23:37.941Z,100479.38
2023-04-07T20:26:05.763Z,100472.63
2023-04-07T20:28:33.581Z,100474.09
2023-04-07T20:31:01.444Z,100478.31
2023-04-07T20:33:29.202Z,100476.97
2023-04-07T20:35:56.922Z,100478.81
2023-04-07T20:38:25.274Z,100470.19
2023-04-07T20:40:53.380Z,100477.47
2023-04-07T20:43:23.658Z,100475.25
2023-04-07T20:45:52.358Z,100488.06
2023-04-07T20:48:28.804Z,100478.16
2023-04-07T20:50:56.467Z,100483.25
2023-04-07T20:53:24.159Z,100488.31
2023-04-07T20:55:52.096Z,100488.91
2023-04-07T20:58:19.873Z,100491.22
2023-04-07T21:00:47.977Z,100488.63
2023-04-07T21:03:15.971Z,100487.34
2023-04-07T21:05:45.098Z,100495.34
2023-04-07T21:08:14.473Z,100492.94
2023-04-07T21:10:42.492Z,100484.09
2023-04-07T21:13:10.350Z,100493.31
2023-04-07T21:15:38.301Z,100487.66
2023-04-07T21:18:06.041Z,100489.06
2023-04-07T21:20:38.847Z,100483.03
2023-04-07T21:23:10.642Z,100478.03
2023-04-07T21:25:38.422Z,100485.16
2023-04-07T21:28:06.531Z,100487.44
2023-04-07T21:30:34.314Z,100491.16
2023-04-07T21:33:02.309Z,100490.31
2023-04-07T21:35:30.048Z,100483.22
2023-04-07T21:37:57.838Z,100489.31
2023-04-07T21:40:25.517Z,100485.69
2023-04-07T21:42:53.274Z,100494.91
2023-04-07T21:45:21.023Z,100494.03
2023-04-07T21:47:48.744Z,100490.75
2023-04-07T21:50:16.897Z,100497.75
2023-04-07T21:52:44.687Z,100492.38
2023-04-07T21:55:12.749Z,100498.97
2023-04-07T21:57:40.564Z,100494.34
2023-04-07T22:00:09.270Z,100496.47
2023-04-07T22:02:43.390Z,100495.78
2023-04-07T22:05:11.404Z,100497.41
2023-04-07T22:07:39.178Z,100502.09
2023-04-07T22:10:07.767Z,100505.28
2023-04-07T22:12:35.594Z,100506.00
2023-04-07T22:15:03.515Z,100499.75
2023-04-07T22:17:33.944Z,100500.44
2023-04-07T22:20:01.756Z,100500.78
2023-04-07T22:22:30.134Z,100496.09
2023-04-07T22:24:57.853Z,100504.28
2023-04-07T22:27:27.462Z,100498.22
2023-04-07T22:29:55.766Z,100498.59
2023-04-07T22:32:23.608Z,100500.66
2023-04-07T22:34:51.767Z,100493.09
2023-04-07T22:37:19.528Z,100483.75
2023-04-07T22:39:47.722Z,100492.25
2023-04-07T22:42:15.585Z,100492.66
2023-04-07T22:44:43.289Z,100494.03
2023-04-07T22:47:11.145Z,100491.97
2023-04-07T22:49:38.941Z,100496.81
2023-04-07T22:52:06.746Z,100489.72
2023-04-07T22:54:37.724Z,100489.06
2023-04-07T22:57:08.446Z,100490.97
2023-04-07T22:59:36.639Z,100496.88
2023-04-07T23:02:04.368Z,100491.13
2023-04-07T23:04:32.232Z,100488.72
2023-04-07T23:06:59.948Z,100504.00
2023-04-07T23:09:27.774Z,100489.25
2023-04-07T23:11:56.994Z,100489.78
2023-04-07T23:14:24.739Z,100494.69
2023-04-07T23:16:54.529Z,100491.91
2023-04-07T23:19:22.404Z,100502.16
2023-04-07T23:21:50.182Z,100503.00
2023-04-07T23:24:17.900Z,100502.50
2023-04-07T23:26:45.657Z,100498.19
2023-04-07T23:29:13.492Z,100496.44
2023-04-07T23:31:41.354Z,100493.69
2023-04-07T23:34:09.085Z,100495.59
2023-04-07T23:36:37.196Z,100490.75
2023-04-07T23:39:04.932Z,100496.66
2023-04-07T23:41:33.123Z,100489.94
2023-04-07T23:44:00.917Z,100484.91
2023-04-07T23:46:28.677Z,100492.00
2023-04-07T23:48:58.645Z,100493.94
2023-04-07T23:51:27.864Z,100492.38
2023-04-07T23:53:55.711Z,100491.00
2023-04-07T23:56:23.870Z,100490.34
2023-04-07T23:58:51.760Z,100495.22
